Terminal Aerodrome Forecast
Issued by NWS Mt. Holly, NJ

Home | Current Version | Previous Version | Text Only | Print | Product List | Glossary On
Versions: 1 2 3 4 5 6 7 8 9 10 11 12 13 14 15 16 17 18 19 20 21 22 23 24 25 26 27
877
FTUS41 KPHI 291133
TAFPHL
TAF
KPHL 291133Z 2912/3018 18008G15KT P6SM SCT150
     FM291700 21012G24KT P6SM SCT045
     FM292100 21014KT P6SM FEW250
     FM300400 20010KT P6SM SCT070=

USA.gov is the U.S. government's official web portal to all federal, state and local government web resources and services.